sensor_id;sensor_type;location;lat;lon;timestamp;P1;durP1;ratioP1;P2;durP2;ratioP2
16954;SDS011;8594;52.052;8.354;2023-11-21T00:01:07;33.77;;;15.97;;
16954;SDS011;8594;52.052;8.354;2023-11-21T00:03:33;26.90;;;14.40;;
16954;SDS011;8594;52.052;8.354;2023-11-21T00:06:00;28.53;;;15.47;;
16954;SDS011;8594;52.052;8.354;2023-11-21T00:08:29;30.37;;;15.47;;
16954;SDS011;8594;52.052;8.354;2023-11-21T00:10:55;29.63;;;15.07;;
16954;SDS011;8594;52.052;8.354;2023-11-21T00:13:25;29.07;;;14.33;;
16954;SDS011;8594;52.052;8.354;2023-11-21T00:15:52;28.33;;;15.60;;
16954;SDS011;8594;52.052;8.354;2023-11-21T00:18:19;30.77;;;14.90;;
16954;SDS011;8594;52.052;8.354;2023-11-21T00:20:46;31.47;;;15.63;;
16954;SDS011;8594;52.052;8.354;2023-11-21T00:23:13;31.50;;;15.27;;
16954;SDS011;8594;52.052;8.354;2023-11-21T00:25:41;29.10;;;15.37;;
16954;SDS011;8594;52.052;8.354;2023-11-21T00:28:09;31.17;;;15.13;;
16954;SDS011;8594;52.052;8.354;2023-11-21T00:30:35;30.70;;;15.77;;
16954;SDS011;8594;52.052;8.354;2023-11-21T00:33:03;30.00;;;15.07;;
16954;SDS011;8594;52.052;8.354;2023-11-21T00:35:30;27.77;;;15.63;;
16954;SDS011;8594;52.052;8.354;2023-11-21T00:37:56;35.50;;;16.67;;
16954;SDS011;8594;52.052;8.354;2023-11-21T00:40:23;25.80;;;15.10;;
16954;SDS011;8594;52.052;8.354;2023-11-21T00:42:51;30.60;;;15.17;;
16954;SDS011;8594;52.052;8.354;2023-11-21T00:45:18;35.20;;;16.43;;
16954;SDS011;8594;52.052;8.354;2023-11-21T00:47:45;35.10;;;17.13;;
16954;SDS011;8594;52.052;8.354;2023-11-21T00:50:12;32.50;;;16.37;;
16954;SDS011;8594;52.052;8.354;2023-11-21T00:52:38;28.90;;;15.30;;
16954;SDS011;8594;52.052;8.354;2023-11-21T00:55:05;33.63;;;15.97;;
16954;SDS011;8594;52.052;8.354;2023-11-21T00:57:34;34.43;;;15.20;;
16954;SDS011;8594;52.052;8.354;2023-11-21T01:00:03;30.47;;;15.43;;
16954;SDS011;8594;52.052;8.354;2023-11-21T01:02:34;34.13;;;15.27;;
16954;SDS011;8594;52.052;8.354;2023-11-21T01:05:01;32.17;;;15.50;;
16954;SDS011;8594;52.052;8.354;2023-11-21T01:07:28;29.33;;;15.83;;
16954;SDS011;8594;52.052;8.354;2023-11-21T01:09:55;30.93;;;15.00;;
16954;SDS011;8594;52.052;8.354;2023-11-21T01:12:22;32.87;;;15.00;;
16954;SDS011;8594;52.052;8.354;2023-11-21T01:14:50;36.90;;;14.80;;
16954;SDS011;8594;52.052;8.354;2023-11-21T01:17:18;30.03;;;14.33;;
16954;SDS011;8594;52.052;8.354;2023-11-21T01:19:47;33.50;;;14.43;;
16954;SDS011;8594;52.052;8.354;2023-11-21T01:22:14;32.17;;;15.30;;
16954;SDS011;8594;52.052;8.354;2023-11-21T01:24:42;31.57;;;15.47;;
16954;SDS011;8594;52.052;8.354;2023-11-21T01:27:09;32.33;;;15.67;;
16954;SDS011;8594;52.052;8.354;2023-11-21T01:29:36;31.53;;;14.83;;
16954;SDS011;8594;52.052;8.354;2023-11-21T01:32:03;28.00;;;15.70;;
16954;SDS011;8594;52.052;8.354;2023-11-21T01:34:34;30.77;;;14.47;;
16954;SDS011;8594;52.052;8.354;2023-11-21T01:37:01;33.23;;;15.87;;
16954;SDS011;8594;52.052;8.354;2023-11-21T01:39:29;34.90;;;15.67;;
16954;SDS011;8594;52.052;8.354;2023-11-21T01:41:56;35.70;;;15.60;;
16954;SDS011;8594;52.052;8.354;2023-11-21T01:44:24;38.27;;;15.77;;
16954;SDS011;8594;52.052;8.354;2023-11-21T01:46:50;34.17;;;16.17;;
16954;SDS011;8594;52.052;8.354;2023-11-21T01:49:18;41.97;;;17.00;;
16954;SDS011;8594;52.052;8.354;2023-11-21T01:51:48;30.77;;;16.00;;
16954;SDS011;8594;52.052;8.354;2023-11-21T01:54:16;39.30;;;16.50;;
16954;SDS011;8594;52.052;8.354;2023-11-21T01:56:45;33.63;;;16.87;;
16954;SDS011;8594;52.052;8.354;2023-11-21T01:59:13;38.57;;;16.87;;
16954;SDS011;8594;52.052;8.354;2023-11-21T02:01:45;35.70;;;15.90;;
16954;SDS011;8594;52.052;8.354;2023-11-21T02:04:12;35.77;;;16.63;;
16954;SDS011;8594;52.052;8.354;2023-11-21T02:06:40;32.50;;;16.27;;
16954;SDS011;8594;52.052;8.354;2023-11-21T02:09:09;32.20;;;15.70;;
16954;SDS011;8594;52.052;8.354;2023-11-21T02:11:40;31.67;;;16.70;;
16954;SDS011;8594;52.052;8.354;2023-11-21T02:14:07;37.83;;;17.03;;
16954;SDS011;8594;52.052;8.354;2023-11-21T02:16:34;30.63;;;15.37;;
16954;SDS011;8594;52.052;8.354;2023-11-21T02:19:02;29.50;;;15.97;;
16954;SDS011;8594;52.052;8.354;2023-11-21T02:21:34;32.17;;;15.97;;
16954;SDS011;8594;52.052;8.354;2023-11-21T02:24:07;36.20;;;15.77;;
16954;SDS011;8594;52.052;8.354;2023-11-21T02:26:35;34.07;;;15.73;;
16954;SDS011;8594;52.052;8.354;2023-11-21T02:29:02;30.27;;;15.17;;
16954;SDS011;8594;52.052;8.354;2023-11-21T02:31:29;32.57;;;14.83;;
16954;SDS011;8594;52.052;8.354;2023-11-21T02:33:57;37.93;;;16.90;;
16954;SDS011;8594;52.052;8.354;2023-11-21T02:36:24;33.60;;;16.23;;
16954;SDS011;8594;52.052;8.354;2023-11-21T02:38:51;28.83;;;14.47;;
16954;SDS011;8594;52.052;8.354;2023-11-21T02:41:19;31.77;;;15.60;;
16954;SDS011;8594;52.052;8.354;2023-11-21T02:43:46;29.07;;;16.80;;
16954;SDS011;8594;52.052;8.354;2023-11-21T02:46:13;30.53;;;16.03;;
16954;SDS011;8594;52.052;8.354;2023-11-21T02:48:40;34.43;;;15.80;;
16954;SDS011;8594;52.052;8.354;2023-11-21T02:51:06;35.30;;;16.60;;
16954;SDS011;8594;52.052;8.354;2023-11-21T02:53:33;39.83;;;17.13;;
16954;SDS011;8594;52.052;8.354;2023-11-21T02:56:00;33.37;;;16.50;;
16954;SDS011;8594;52.052;8.354;2023-11-21T02:58:29;35.07;;;16.37;;
16954;SDS011;8594;52.052;8.354;2023-11-21T03:00:55;38.67;;;16.27;;
16954;SDS011;8594;52.052;8.354;2023-11-21T03:03:22;34.10;;;16.63;;
16954;SDS011;8594;52.052;8.354;2023-11-21T03:05:50;33.07;;;15.13;;
16954;SDS011;8594;52.052;8.354;2023-11-21T03:08:17;38.07;;;17.13;;
16954;SDS011;8594;52.052;8.354;2023-11-21T03:10:44;37.20;;;16.80;;
16954;SDS011;8594;52.052;8.354;2023-11-21T03:13:10;36.03;;;17.40;;
16954;SDS011;8594;52.052;8.354;2023-11-21T03:15:39;38.07;;;17.83;;
16954;SDS011;8594;52.052;8.354;2023-11-21T03:18:05;37.93;;;16.30;;
16954;SDS011;8594;52.052;8.354;2023-11-21T03:20:33;38.30;;;17.57;;
16954;SDS011;8594;52.052;8.354;2023-11-21T03:23:01;41.57;;;17.10;;
16954;SDS011;8594;52.052;8.354;2023-11-21T03:25:28;42.07;;;18.37;;
16954;SDS011;8594;52.052;8.354;2023-11-21T03:27:56;37.20;;;16.17;;
16954;SDS011;8594;52.052;8.354;2023-11-21T03:30:23;44.43;;;18.87;;
16954;SDS011;8594;52.052;8.354;2023-11-21T03:32:51;39.67;;;18.13;;
16954;SDS011;8594;52.052;8.354;2023-11-21T03:35:18;37.10;;;17.70;;
16954;SDS011;8594;52.052;8.354;2023-11-21T03:37:46;39.40;;;17.63;;
16954;SDS011;8594;52.052;8.354;2023-11-21T03:40:13;39.87;;;18.67;;
16954;SDS011;8594;52.052;8.354;2023-11-21T03:42:40;40.93;;;18.33;;
16954;SDS011;8594;52.052;8.354;2023-11-21T03:45:07;36.23;;;17.57;;
16954;SDS011;8594;52.052;8.354;2023-11-21T03:47:37;33.80;;;18.07;;
16954;SDS011;8594;52.052;8.354;2023-11-21T03:50:06;39.73;;;18.80;;
16954;SDS011;8594;52.052;8.354;2023-11-21T03:52:34;40.03;;;17.97;;
16954;SDS011;8594;52.052;8.354;2023-11-21T03:55:01;45.90;;;18.73;;
16954;SDS011;8594;52.052;8.354;2023-11-21T03:57:29;34.97;;;17.63;;
16954;SDS011;8594;52.052;8.354;2023-11-21T03:59:55;39.03;;;17.93;;
16954;SDS011;8594;52.052;8.354;2023-11-21T04:02:22;33.73;;;17.30;;
16954;SDS011;8594;52.052;8.354;2023-11-21T04:04:51;40.17;;;17.53;;
16954;SDS011;8594;52.052;8.354;2023-11-21T04:07:19;41.10;;;18.37;;
16954;SDS011;8594;52.052;8.354;2023-11-21T04:09:47;36.67;;;16.90;;
16954;SDS011;8594;52.052;8.354;2023-11-21T04:12:13;37.00;;;17.33;;
16954;SDS011;8594;52.052;8.354;2023-11-21T04:14:40;33.90;;;16.80;;
16954;SDS011;8594;52.052;8.354;2023-11-21T04:17:07;32.80;;;15.70;;
16954;SDS011;8594;52.052;8.354;2023-11-21T04:19:34;36.13;;;17.90;;
16954;SDS011;8594;52.052;8.354;2023-11-21T04:22:01;35.40;;;18.27;;
16954;SDS011;8594;52.052;8.354;2023-11-21T04:24:30;31.43;;;16.77;;
16954;SDS011;8594;52.052;8.354;2023-11-21T04:26:57;40.93;;;17.77;;
16954;SDS011;8594;52.052;8.354;2023-11-21T04:29:24;33.33;;;16.77;;
16954;SDS011;8594;52.052;8.354;2023-11-21T04:31:51;37.53;;;18.23;;
16954;SDS011;8594;52.052;8.354;2023-11-21T04:34:17;35.87;;;17.17;;
16954;SDS011;8594;52.052;8.354;2023-11-21T04:36:44;31.73;;;18.03;;
16954;SDS011;8594;52.052;8.354;2023-11-21T04:39:11;39.90;;;18.13;;
16954;SDS011;8594;52.052;8.354;2023-11-21T04:41:39;36.80;;;18.07;;
16954;SDS011;8594;52.052;8.354;2023-11-21T04:44:07;39.93;;;17.43;;
16954;SDS011;8594;52.052;8.354;2023-11-21T04:46:34;40.27;;;17.73;;
16954;SDS011;8594;52.052;8.354;2023-11-21T04:49:01;39.50;;;18.50;;
16954;SDS011;8594;52.052;8.354;2023-11-21T04:51:28;38.33;;;17.73;;
16954;SDS011;8594;52.052;8.354;2023-11-21T04:53:54;37.20;;;17.33;;
16954;SDS011;8594;52.052;8.354;2023-11-21T04:56:21;29.73;;;15.97;;
16954;SDS011;8594;52.052;8.354;2023-11-21T04:58:49;39.13;;;17.57;;
16954;SDS011;8594;52.052;8.354;2023-11-21T05:01:16;32.90;;;17.97;;
16954;SDS011;8594;52.052;8.354;2023-11-21T05:03:43;34.73;;;16.80;;
16954;SDS011;8594;52.052;8.354;2023-11-21T05:06:12;37.40;;;16.93;;
16954;SDS011;8594;52.052;8.354;2023-11-21T05:08:39;33.50;;;16.50;;
16954;SDS011;8594;52.052;8.354;2023-11-21T05:11:06;39.27;;;17.77;;
16954;SDS011;8594;52.052;8.354;2023-11-21T05:13:35;39.37;;;17.27;;
16954;SDS011;8594;52.052;8.354;2023-11-21T05:16:05;35.80;;;16.60;;
16954;SDS011;8594;52.052;8.354;2023-11-21T05:18:33;38.07;;;17.13;;
16954;SDS011;8594;52.052;8.354;2023-11-21T05:20:59;33.47;;;17.13;;
16954;SDS011;8594;52.052;8.354;2023-11-21T05:23:27;42.83;;;16.50;;
16954;SDS011;8594;52.052;8.354;2023-11-21T05:25:54;34.07;;;17.47;;
16954;SDS011;8594;52.052;8.354;2023-11-21T05:28:21;43.07;;;17.83;;
16954;SDS011;8594;52.052;8.354;2023-11-21T05:30:48;38.53;;;17.27;;
16954;SDS011;8594;52.052;8.354;2023-11-21T05:33:16;38.23;;;16.77;;
16954;SDS011;8594;52.052;8.354;2023-11-21T05:35:43;35.80;;;18.10;;
16954;SDS011;8594;52.052;8.354;2023-11-21T05:38:10;35.43;;;16.53;;
16954;SDS011;8594;52.052;8.354;2023-11-21T05:40:37;38.47;;;17.10;;
16954;SDS011;8594;52.052;8.354;2023-11-21T05:43:03;34.80;;;17.23;;
16954;SDS011;8594;52.052;8.354;2023-11-21T05:45:31;30.67;;;16.43;;
16954;SDS011;8594;52.052;8.354;2023-11-21T05:47:58;38.10;;;17.00;;
16954;SDS011;8594;52.052;8.354;2023-11-21T05:50:26;38.60;;;17.40;;
16954;SDS011;8594;52.052;8.354;2023-11-21T05:52:53;39.87;;;18.03;;
16954;SDS011;8594;52.052;8.354;2023-11-21T05:55:22;35.20;;;17.17;;
16954;SDS011;8594;52.052;8.354;2023-11-21T05:57:50;38.67;;;17.80;;
16954;SDS011;8594;52.052;8.354;2023-11-21T06:00:18;41.83;;;18.70;;
16954;SDS011;8594;52.052;8.354;2023-11-21T06:02:46;42.97;;;18.37;;
16954;SDS011;8594;52.052;8.354;2023-11-21T06:05:15;41.10;;;18.40;;
16954;SDS011;8594;52.052;8.354;2023-11-21T06:07:45;36.77;;;17.50;;
16954;SDS011;8594;52.052;8.354;2023-11-21T06:10:12;42.80;;;17.90;;
16954;SDS011;8594;52.052;8.354;2023-11-21T06:12:39;42.60;;;18.13;;
16954;SDS011;8594;52.052;8.354;2023-11-21T06:15:08;39.57;;;18.27;;
16954;SDS011;8594;52.052;8.354;2023-11-21T06:17:38;39.00;;;19.37;;
16954;SDS011;8594;52.052;8.354;2023-11-21T06:20:06;36.53;;;17.30;;
16954;SDS011;8594;52.052;8.354;2023-11-21T06:22:35;34.37;;;17.40;;
16954;SDS011;8594;52.052;8.354;2023-11-21T06:25:04;38.73;;;17.37;;
16954;SDS011;8594;52.052;8.354;2023-11-21T06:27:33;42.37;;;18.83;;
16954;SDS011;8594;52.052;8.354;2023-11-21T06:30:01;40.90;;;17.43;;
16954;SDS011;8594;52.052;8.354;2023-11-21T06:32:28;41.27;;;17.63;;
16954;SDS011;8594;52.052;8.354;2023-11-21T06:34:56;39.30;;;16.87;;
16954;SDS011;8594;52.052;8.354;2023-11-21T06:37:24;46.10;;;19.93;;
16954;SDS011;8594;52.052;8.354;2023-11-21T06:39:51;46.23;;;19.47;;
16954;SDS011;8594;52.052;8.354;2023-11-21T06:42:20;44.97;;;19.37;;
16954;SDS011;8594;52.052;8.354;2023-11-21T06:44:47;49.57;;;19.40;;
16954;SDS011;8594;52.052;8.354;2023-11-21T06:47:14;58.53;;;20.57;;
16954;SDS011;8594;52.052;8.354;2023-11-21T06:49:42;46.60;;;19.90;;
16954;SDS011;8594;52.052;8.354;2023-11-21T06:52:09;51.47;;;19.23;;
16954;SDS011;8594;52.052;8.354;2023-11-21T06:54:36;47.30;;;20.47;;
16954;SDS011;8594;52.052;8.354;2023-11-21T06:57:03;51.07;;;19.43;;
16954;SDS011;8594;52.052;8.354;2023-11-21T06:59:31;53.87;;;20.07;;
16954;SDS011;8594;52.052;8.354;2023-11-21T07:01:58;49.30;;;19.70;;
16954;SDS011;8594;52.052;8.354;2023-11-21T07:04:25;52.90;;;18.77;;
16954;SDS011;8594;52.052;8.354;2023-11-21T07:06:52;51.03;;;19.47;;
16954;SDS011;8594;52.052;8.354;2023-11-21T07:09:20;47.70;;;18.80;;
16954;SDS011;8594;52.052;8.354;2023-11-21T07:11:48;61.10;;;20.20;;
16954;SDS011;8594;52.052;8.354;2023-11-21T07:14:15;58.77;;;19.37;;
16954;SDS011;8594;52.052;8.354;2023-11-21T07:16:45;54.90;;;20.20;;
16954;SDS011;8594;52.052;8.354;2023-11-21T07:19:13;63.47;;;20.87;;
16954;SDS011;8594;52.052;8.354;2023-11-21T07:21:40;54.07;;;19.50;;
16954;SDS011;8594;52.052;8.354;2023-11-21T07:24:07;58.40;;;21.23;;
16954;SDS011;8594;52.052;8.354;2023-11-21T07:26:36;64.60;;;19.87;;
16954;SDS011;8594;52.052;8.354;2023-11-21T07:29:03;61.97;;;22.27;;
16954;SDS011;8594;52.052;8.354;2023-11-21T07:31:31;57.63;;;20.37;;
16954;SDS011;8594;52.052;8.354;2023-11-21T07:34:00;58.47;;;21.50;;
16954;SDS011;8594;52.052;8.354;2023-11-21T07:36:27;64.73;;;21.87;;
16954;SDS011;8594;52.052;8.354;2023-11-21T07:38:54;62.23;;;21.73;;
16954;SDS011;8594;52.052;8.354;2023-11-21T07:41:21;58.07;;;21.27;;
16954;SDS011;8594;52.052;8.354;2023-11-21T07:43:48;55.53;;;21.17;;
16954;SDS011;8594;52.052;8.354;2023-11-21T07:46:15;54.90;;;20.63;;
16954;SDS011;8594;52.052;8.354;2023-11-21T07:48:43;56.63;;;21.30;;
16954;SDS011;8594;52.052;8.354;2023-11-21T07:51:12;52.60;;;21.47;;
16954;SDS011;8594;52.052;8.354;2023-11-21T07:53:39;55.07;;;21.00;;
16954;SDS011;8594;52.052;8.354;2023-11-21T07:56:07;47.97;;;18.70;;
16954;SDS011;8594;52.052;8.354;2023-11-21T07:58:35;58.73;;;22.40;;
16954;SDS011;8594;52.052;8.354;2023-11-21T08:01:02;64.13;;;24.20;;
16954;SDS011;8594;52.052;8.354;2023-11-21T08:03:30;44.73;;;17.40;;
16954;SDS011;8594;52.052;8.354;2023-11-21T08:05:57;38.17;;;17.03;;
16954;SDS011;8594;52.052;8.354;2023-11-21T08:08:26;49.53;;;19.57;;
16954;SDS011;8594;52.052;8.354;2023-11-21T08:10:53;46.00;;;18.70;;
16954;SDS011;8594;52.052;8.354;2023-11-21T08:13:22;46.57;;;19.23;;
16954;SDS011;8594;52.052;8.354;2023-11-21T08:15:49;43.80;;;19.17;;
16954;SDS011;8594;52.052;8.354;2023-11-21T08:18:16;41.37;;;16.47;;
16954;SDS011;8594;52.052;8.354;2023-11-21T08:20:43;38.53;;;16.53;;
16954;SDS011;8594;52.052;8.354;2023-11-21T08:23:12;34.20;;;15.10;;
16954;SDS011;8594;52.052;8.354;2023-11-21T08:25:42;30.23;;;14.03;;
16954;SDS011;8594;52.052;8.354;2023-11-21T08:28:09;30.90;;;14.53;;
16954;SDS011;8594;52.052;8.354;2023-11-21T08:30:37;31.13;;;14.23;;
16954;SDS011;8594;52.052;8.354;2023-11-21T08:33:04;36.90;;;15.93;;
16954;SDS011;8594;52.052;8.354;2023-11-21T08:35:31;36.43;;;15.13;;
16954;SDS011;8594;52.052;8.354;2023-11-21T08:37:58;31.20;;;14.73;;
16954;SDS011;8594;52.052;8.354;2023-11-21T08:40:25;25.57;;;11.80;;
16954;SDS011;8594;52.052;8.354;2023-11-21T08:42:53;25.30;;;12.10;;
16954;SDS011;8594;52.052;8.354;2023-11-21T08:45:20;26.90;;;11.73;;
16954;SDS011;8594;52.052;8.354;2023-11-21T08:47:48;26.97;;;12.17;;
16954;SDS011;8594;52.052;8.354;2023-11-21T08:50:15;23.80;;;12.00;;
16954;SDS011;8594;52.052;8.354;2023-11-21T08:52:42;24.37;;;11.97;;
16954;SDS011;8594;52.052;8.354;2023-11-21T08:55:11;24.03;;;11.50;;
16954;SDS011;8594;52.052;8.354;2023-11-21T08:57:39;25.60;;;12.73;;
16954;SDS011;8594;52.052;8.354;2023-11-21T09:00:09;25.77;;;11.70;;
16954;SDS011;8594;52.052;8.354;2023-11-21T09:02:38;30.60;;;13.07;;
16954;SDS011;8594;52.052;8.354;2023-11-21T09:05:07;24.60;;;11.97;;
16954;SDS011;8594;52.052;8.354;2023-11-21T09:07:35;27.93;;;12.90;;
16954;SDS011;8594;52.052;8.354;2023-11-21T09:10:02;22.77;;;11.23;;
16954;SDS011;8594;52.052;8.354;2023-11-21T09:12:32;27.37;;;11.50;;
16954;SDS011;8594;52.052;8.354;2023-11-21T09:15:00;25.97;;;11.77;;
16954;SDS011;8594;52.052;8.354;2023-11-21T09:17:28;25.13;;;12.23;;
16954;SDS011;8594;52.052;8.354;2023-11-21T09:19:55;25.90;;;12.57;;
16954;SDS011;8594;52.052;8.354;2023-11-21T09:22:22;24.63;;;14.10;;
16954;SDS011;8594;52.052;8.354;2023-11-21T09:24:49;26.50;;;13.40;;
16954;SDS011;8594;52.052;8.354;2023-11-21T09:27:17;27.67;;;15.43;;
16954;SDS011;8594;52.052;8.354;2023-11-21T09:29:44;24.00;;;11.87;;
16954;SDS011;8594;52.052;8.354;2023-11-21T09:32:12;26.80;;;13.93;;
16954;SDS011;8594;52.052;8.354;2023-11-21T09:34:44;22.77;;;12.23;;
16954;SDS011;8594;52.052;8.354;2023-11-21T09:37:11;24.67;;;12.87;;
16954;SDS011;8594;52.052;8.354;2023-11-21T09:39:38;22.83;;;11.17;;
16954;SDS011;8594;52.052;8.354;2023-11-21T09:42:08;22.23;;;11.50;;
16954;SDS011;8594;52.052;8.354;2023-11-21T09:44:43;24.47;;;11.90;;
16954;SDS011;8594;52.052;8.354;2023-11-21T09:47:18;25.10;;;12.17;;
16954;SDS011;8594;52.052;8.354;2023-11-21T09:49:48;20.30;;;10.70;;
16954;SDS011;8594;52.052;8.354;2023-11-21T09:52:18;21.43;;;11.53;;
16954;SDS011;8594;52.052;8.354;2023-11-21T09:54:51;21.87;;;11.47;;
16954;SDS011;8594;52.052;8.354;2023-11-21T09:57:22;24.90;;;11.80;;
16954;SDS011;8594;52.052;8.354;2023-11-21T09:59:50;20.40;;;11.77;;
16954;SDS011;8594;52.052;8.354;2023-11-21T10:02:21;22.80;;;12.73;;
16954;SDS011;8594;52.052;8.354;2023-11-21T10:04:54;20.63;;;10.80;;
16954;SDS011;8594;52.052;8.354;2023-11-21T10:07:21;19.07;;;9.53;;
16954;SDS011;8594;52.052;8.354;2023-11-21T10:09:49;19.47;;;10.13;;
16954;SDS011;8594;52.052;8.354;2023-11-21T10:12:18;21.37;;;11.23;;
16954;SDS011;8594;52.052;8.354;2023-11-21T10:14:47;15.13;;;8.70;;
16954;SDS011;8594;52.052;8.354;2023-11-21T10:17:16;19.17;;;9.67;;
16954;SDS011;8594;52.052;8.354;2023-11-21T10:19:45;19.87;;;10.00;;
16954;SDS011;8594;52.052;8.354;2023-11-21T10:22:15;13.73;;;8.20;;
16954;SDS011;8594;52.052;8.354;2023-11-21T10:24:42;19.53;;;9.70;;
16954;SDS011;8594;52.052;8.354;2023-11-21T10:27:09;13.00;;;7.07;;
16954;SDS011;8594;52.052;8.354;2023-11-21T10:29:36;12.97;;;6.50;;
16954;SDS011;8594;52.052;8.354;2023-11-21T10:32:03;11.97;;;6.67;;
16954;SDS011;8594;52.052;8.354;2023-11-21T10:34:30;11.60;;;6.20;;
16954;SDS011;8594;52.052;8.354;2023-11-21T10:36:59;18.80;;;8.67;;
16954;SDS011;8594;52.052;8.354;2023-11-21T10:39:39;15.47;;;8.43;;
16954;SDS011;8594;52.052;8.354;2023-11-21T10:42:09;15.00;;;8.07;;
16954;SDS011;8594;52.052;8.354;2023-11-21T10:44:35;13.43;;;7.33;;
16954;SDS011;8594;52.052;8.354;2023-11-21T10:47:03;15.17;;;7.07;;
16954;SDS011;8594;52.052;8.354;2023-11-21T10:49:30;15.63;;;7.63;;
16954;SDS011;8594;52.052;8.354;2023-11-21T10:51:57;15.23;;;8.23;;
16954;SDS011;8594;52.052;8.354;2023-11-21T10:54:24;35.70;;;9.10;;
16954;SDS011;8594;52.052;8.354;2023-11-21T10:56:56;16.03;;;8.37;;
16954;SDS011;8594;52.052;8.354;2023-11-21T10:59:25;29.83;;;10.47;;
16954;SDS011;8594;52.052;8.354;2023-11-21T11:01:57;20.90;;;10.10;;
16954;SDS011;8594;52.052;8.354;2023-11-21T11:04:27;25.67;;;11.37;;
16954;SDS011;8594;52.052;8.354;2023-11-21T11:06:54;27.20;;;11.93;;
16954;SDS011;8594;52.052;8.354;2023-11-21T11:09:28;24.80;;;11.10;;
16954;SDS011;8594;52.052;8.354;2023-11-21T11:11:58;31.37;;;13.13;;
16954;SDS011;8594;52.052;8.354;2023-11-21T11:14:26;28.53;;;13.37;;
16954;SDS011;8594;52.052;8.354;2023-11-21T11:16:54;30.53;;;12.87;;
16954;SDS011;8594;52.052;8.354;2023-11-21T11:19:21;28.73;;;13.47;;
16954;SDS011;8594;52.052;8.354;2023-11-21T11:21:50;27.67;;;14.03;;
16954;SDS011;8594;52.052;8.354;2023-11-21T11:24:36;23.13;;;13.47;;
16954;SDS011;8594;52.052;8.354;2023-11-21T11:27:23;24.37;;;13.07;;
16954;SDS011;8594;52.052;8.354;2023-11-21T11:30:10;23.50;;;13.00;;
16954;SDS011;8594;52.052;8.354;2023-11-21T11:32:51;21.90;;;13.10;;
16954;SDS011;8594;52.052;8.354;2023-11-21T11:35:33;18.43;;;11.70;;
16954;SDS011;8594;52.052;8.354;2023-11-21T11:38:14;13.30;;;7.67;;
16954;SDS011;8594;52.052;8.354;2023-11-21T11:40:44;16.03;;;8.73;;
16954;SDS011;8594;52.052;8.354;2023-11-21T11:43:16;15.40;;;9.43;;
16954;SDS011;8594;52.052;8.354;2023-11-21T11:45:51;17.97;;;10.70;;
16954;SDS011;8594;52.052;8.354;2023-11-21T11:48:22;20.00;;;10.77;;
16954;SDS011;8594;52.052;8.354;2023-11-21T11:51:05;23.33;;;13.03;;
16954;SDS011;8594;52.052;8.354;2023-11-21T11:53:37;27.00;;;13.03;;
16954;SDS011;8594;52.052;8.354;2023-11-21T11:56:19;26.10;;;13.50;;
16954;SDS011;8594;52.052;8.354;2023-11-21T11:58:57;27.10;;;12.83;;
16954;SDS011;8594;52.052;8.354;2023-11-21T12:01:27;27.80;;;14.57;;
16954;SDS011;8594;52.052;8.354;2023-11-21T12:06:56;23.00;;;11.43;;
16954;SDS011;8594;52.052;8.354;2023-11-21T12:09:27;23.50;;;12.70;;
16954;SDS011;8594;52.052;8.354;2023-11-21T12:11:56;25.60;;;12.80;;
16954;SDS011;8594;52.052;8.354;2023-11-21T12:14:25;28.53;;;13.93;;
16954;SDS011;8594;52.052;8.354;2023-11-21T12:16:52;26.70;;;13.77;;
16954;SDS011;8594;52.052;8.354;2023-11-21T12:19:20;23.90;;;12.53;;
16954;SDS011;8594;52.052;8.354;2023-11-21T12:21:48;19.33;;;10.20;;
16954;SDS011;8594;52.052;8.354;2023-11-21T12:24:15;18.87;;;9.77;;
16954;SDS011;8594;52.052;8.354;2023-11-21T12:26:42;19.33;;;10.20;;
16954;SDS011;8594;52.052;8.354;2023-11-21T12:29:10;20.20;;;10.23;;
16954;SDS011;8594;52.052;8.354;2023-11-21T12:31:38;19.27;;;10.60;;
16954;SDS011;8594;52.052;8.354;2023-11-21T12:34:06;17.00;;;9.80;;
16954;SDS011;8594;52.052;8.354;2023-11-21T12:36:36;23.30;;;9.93;;
16954;SDS011;8594;52.052;8.354;2023-11-21T12:39:03;17.60;;;10.27;;
16954;SDS011;8594;52.052;8.354;2023-11-21T12:41:34;25.77;;;12.27;;
16954;SDS011;8594;52.052;8.354;2023-11-21T12:44:01;26.37;;;12.47;;
16954;SDS011;8594;52.052;8.354;2023-11-21T12:46:28;21.97;;;11.33;;
16954;SDS011;8594;52.052;8.354;2023-11-21T12:48:59;25.67;;;11.30;;
16954;SDS011;8594;52.052;8.354;2023-11-21T12:51:26;24.30;;;12.00;;
16954;SDS011;8594;52.052;8.354;2023-11-21T12:53:54;24.67;;;11.90;;
16954;SDS011;8594;52.052;8.354;2023-11-21T12:56:22;27.17;;;12.23;;
16954;SDS011;8594;52.052;8.354;2023-11-21T12:58:49;21.53;;;12.00;;
16954;SDS011;8594;52.052;8.354;2023-11-21T13:01:22;24.13;;;11.73;;
16954;SDS011;8594;52.052;8.354;2023-11-21T13:03:54;22.00;;;10.50;;
16954;SDS011;8594;52.052;8.354;2023-11-21T13:06:24;21.30;;;10.27;;
16954;SDS011;8594;52.052;8.354;2023-11-21T13:08:51;20.97;;;9.90;;
16954;SDS011;8594;52.052;8.354;2023-11-21T13:11:19;19.77;;;10.80;;
16954;SDS011;8594;52.052;8.354;2023-11-21T13:13:47;18.90;;;10.13;;
16954;SDS011;8594;52.052;8.354;2023-11-21T13:16:18;19.37;;;10.13;;
16954;SDS011;8594;52.052;8.354;2023-11-21T13:18:45;20.97;;;10.13;;
16954;SDS011;8594;52.052;8.354;2023-11-21T13:21:12;21.17;;;9.97;;
16954;SDS011;8594;52.052;8.354;2023-11-21T13:23:41;17.00;;;9.83;;
16954;SDS011;8594;52.052;8.354;2023-11-21T13:26:11;19.70;;;9.53;;
16954;SDS011;8594;52.052;8.354;2023-11-21T13:28:39;16.50;;;9.33;;
16954;SDS011;8594;52.052;8.354;2023-11-21T13:31:11;15.67;;;8.80;;
16954;SDS011;8594;52.052;8.354;2023-11-21T13:33:50;15.67;;;8.53;;
16954;SDS011;8594;52.052;8.354;2023-11-21T13:36:21;21.27;;;10.03;;
16954;SDS011;8594;52.052;8.354;2023-11-21T13:38:50;17.00;;;9.60;;
16954;SDS011;8594;52.052;8.354;2023-11-21T13:41:18;16.33;;;9.33;;
16954;SDS011;8594;52.052;8.354;2023-11-21T13:43:47;18.03;;;8.67;;
16954;SDS011;8594;52.052;8.354;2023-11-21T13:46:22;19.47;;;9.80;;
16954;SDS011;8594;52.052;8.354;2023-11-21T13:48:49;17.80;;;8.67;;
16954;SDS011;8594;52.052;8.354;2023-11-21T13:51:20;14.43;;;8.00;;
16954;SDS011;8594;52.052;8.354;2023-11-21T13:53:56;14.50;;;8.43;;
16954;SDS011;8594;52.052;8.354;2023-11-21T13:56:24;13.97;;;7.67;;
16954;SDS011;8594;52.052;8.354;2023-11-21T13:58:53;12.90;;;7.40;;
16954;SDS011;8594;52.052;8.354;2023-11-21T14:01:21;15.47;;;7.27;;
16954;SDS011;8594;52.052;8.354;2023-11-21T14:04:10;13.27;;;7.30;;
16954;SDS011;8594;52.052;8.354;2023-11-21T14:06:44;12.67;;;7.73;;
16954;SDS011;8594;52.052;8.354;2023-11-21T14:09:15;12.73;;;7.33;;
16954;SDS011;8594;52.052;8.354;2023-11-21T14:11:50;13.13;;;8.10;;
16954;SDS011;8594;52.052;8.354;2023-11-21T14:14:18;16.27;;;7.90;;
16954;SDS011;8594;52.052;8.354;2023-11-21T14:16:47;18.07;;;9.33;;
16954;SDS011;8594;52.052;8.354;2023-11-21T14:19:14;13.77;;;8.10;;
16954;SDS011;8594;52.052;8.354;2023-11-21T14:21:41;14.87;;;8.20;;
16954;SDS011;8594;52.052;8.354;2023-11-21T14:24:09;13.90;;;7.80;;
16954;SDS011;8594;52.052;8.354;2023-11-21T14:26:39;13.10;;;7.80;;
16954;SDS011;8594;52.052;8.354;2023-11-21T14:29:07;14.17;;;8.10;;
16954;SDS011;8594;52.052;8.354;2023-11-21T14:31:37;12.67;;;7.47;;
16954;SDS011;8594;52.052;8.354;2023-11-21T14:34:04;15.73;;;8.63;;
16954;SDS011;8594;52.052;8.354;2023-11-21T14:36:32;13.83;;;8.10;;
16954;SDS011;8594;52.052;8.354;2023-11-21T14:38:59;15.87;;;8.23;;
16954;SDS011;8594;52.052;8.354;2023-11-21T14:41:26;13.47;;;8.47;;
16954;SDS011;8594;52.052;8.354;2023-11-21T14:43:55;15.23;;;8.23;;
16954;SDS011;8594;52.052;8.354;2023-11-21T14:46:22;14.47;;;8.23;;